sensor_id;sensor_type;location;lat;lon;timestamp;P1;durP1;ratioP1;P2;durP2;ratioP2
10088;SDS011;51898;49.864;8.550;2022-10-15T00:00:26;8.30;;;7.40;;
10088;SDS011;51898;49.864;8.550;2022-10-15T00:03:27;9.80;;;7.80;;
10088;SDS011;51898;49.864;8.550;2022-10-15T00:06:29;12.93;;;8.17;;
10088;SDS011;51898;49.864;8.550;2022-10-15T00:09:31;8.80;;;7.60;;
10088;SDS011;51898;49.864;8.550;2022-10-15T00:12:33;10.63;;;8.13;;
10088;SDS011;51898;49.864;8.550;2022-10-15T00:15:35;9.47;;;7.63;;
10088;SDS011;51898;49.864;8.550;2022-10-15T00:18:37;10.60;;;8.40;;
10088;SDS011;51898;49.864;8.550;2022-10-15T00:21:40;10.73;;;8.27;;
10088;SDS011;51898;49.864;8.550;2022-10-15T00:24:41;9.00;;;7.60;;
10088;SDS011;51898;49.864;8.550;2022-10-15T00:27:43;10.03;;;8.60;;
10088;SDS011;51898;49.864;8.550;2022-10-15T00:30:45;9.90;;;7.83;;
10088;SDS011;51898;49.864;8.550;2022-10-15T00:33:47;9.73;;;8.50;;
10088;SDS011;51898;49.864;8.550;2022-10-15T00:36:49;7.97;;;7.17;;
10088;SDS011;51898;49.864;8.550;2022-10-15T00:39:51;10.17;;;8.63;;
10088;SDS011;51898;49.864;8.550;2022-10-15T00:42:53;10.03;;;7.93;;
10088;SDS011;51898;49.864;8.550;2022-10-15T00:45:54;11.33;;;8.97;;
10088;SDS011;51898;49.864;8.550;2022-10-15T00:48:57;8.97;;;7.97;;
10088;SDS011;51898;49.864;8.550;2022-10-15T00:52:17;9.80;;;7.30;;
10088;SDS011;51898;49.864;8.550;2022-10-15T00:58:38;10.27;;;8.27;;
10088;SDS011;51898;49.864;8.550;2022-10-15T01:01:40;10.33;;;7.90;;
10088;SDS011;51898;49.864;8.550;2022-10-15T01:04:42;9.17;;;8.10;;
10088;SDS011;51898;49.864;8.550;2022-10-15T01:07:45;10.03;;;8.47;;
10088;SDS011;51898;49.864;8.550;2022-10-15T01:14:14;11.67;;;8.43;;
10088;SDS011;51898;49.864;8.550;2022-10-15T01:21:08;12.30;;;8.73;;
10088;SDS011;51898;49.864;8.550;2022-10-15T01:24:16;12.73;;;9.33;;
10088;SDS011;51898;49.864;8.550;2022-10-15T01:30:57;14.50;;;11.13;;
10088;SDS011;51898;49.864;8.550;2022-10-15T01:34:03;12.80;;;9.97;;
10088;SDS011;51898;49.864;8.550;2022-10-15T01:37:08;15.03;;;10.17;;
10088;SDS011;51898;49.864;8.550;2022-10-15T01:40:20;13.67;;;10.00;;
10088;SDS011;51898;49.864;8.550;2022-10-15T01:43:28;13.83;;;10.23;;
10088;SDS011;51898;49.864;8.550;2022-10-15T01:46:40;14.30;;;10.80;;
10088;SDS011;51898;49.864;8.550;2022-10-15T01:49:46;15.60;;;11.00;;
10088;SDS011;51898;49.864;8.550;2022-10-15T01:52:49;16.93;;;10.10;;
10088;SDS011;51898;49.864;8.550;2022-10-15T01:55:52;16.57;;;11.20;;
10088;SDS011;51898;49.864;8.550;2022-10-15T01:58:58;14.90;;;10.73;;
10088;SDS011;51898;49.864;8.550;2022-10-15T02:02:00;16.97;;;11.20;;
10088;SDS011;51898;49.864;8.550;2022-10-15T02:05:02;18.60;;;11.33;;
10088;SDS011;51898;49.864;8.550;2022-10-15T02:08:37;17.00;;;12.13;;
10088;SDS011;51898;49.864;8.550;2022-10-15T02:15:49;22.03;;;12.13;;
10088;SDS011;51898;49.864;8.550;2022-10-15T02:18:59;17.47;;;11.87;;
10088;SDS011;51898;49.864;8.550;2022-10-15T02:25:20;18.77;;;12.10;;
10088;SDS011;51898;49.864;8.550;2022-10-15T02:28:24;19.60;;;11.73;;
10088;SDS011;51898;49.864;8.550;2022-10-15T02:31:29;21.20;;;11.87;;
10088;SDS011;51898;49.864;8.550;2022-10-15T02:34:33;18.07;;;11.50;;
10088;SDS011;51898;49.864;8.550;2022-10-15T02:37:36;17.30;;;11.83;;
10088;SDS011;51898;49.864;8.550;2022-10-15T02:40:42;17.50;;;12.30;;
10088;SDS011;51898;49.864;8.550;2022-10-15T02:43:45;19.03;;;12.30;;
10088;SDS011;51898;49.864;8.550;2022-10-15T02:46:47;17.93;;;12.20;;
10088;SDS011;51898;49.864;8.550;2022-10-15T02:49:49;19.77;;;12.03;;
10088;SDS011;51898;49.864;8.550;2022-10-15T02:52:51;21.80;;;11.70;;
10088;SDS011;51898;49.864;8.550;2022-10-15T02:55:52;20.63;;;12.70;;
10088;SDS011;51898;49.864;8.550;2022-10-15T02:58:54;19.00;;;12.70;;
10088;SDS011;51898;49.864;8.550;2022-10-15T03:01:56;17.87;;;11.67;;
10088;SDS011;51898;49.864;8.550;2022-10-15T03:04:57;17.47;;;11.83;;
10088;SDS011;51898;49.864;8.550;2022-10-15T03:07:59;24.23;;;13.07;;
10088;SDS011;51898;49.864;8.550;2022-10-15T03:11:01;18.57;;;12.50;;
10088;SDS011;51898;49.864;8.550;2022-10-15T03:14:02;19.73;;;12.20;;
10088;SDS011;51898;49.864;8.550;2022-10-15T03:17:04;22.07;;;13.20;;
10088;SDS011;51898;49.864;8.550;2022-10-15T03:20:06;21.63;;;13.30;;
10088;SDS011;51898;49.864;8.550;2022-10-15T03:23:07;20.13;;;12.70;;
10088;SDS011;51898;49.864;8.550;2022-10-15T03:26:09;24.20;;;14.40;;
10088;SDS011;51898;49.864;8.550;2022-10-15T03:29:11;22.80;;;13.20;;
10088;SDS011;51898;49.864;8.550;2022-10-15T03:32:12;22.80;;;13.70;;
10088;SDS011;51898;49.864;8.550;2022-10-15T03:35:14;19.87;;;12.93;;
10088;SDS011;51898;49.864;8.550;2022-10-15T03:38:15;25.47;;;13.80;;
10088;SDS011;51898;49.864;8.550;2022-10-15T03:41:17;28.97;;;13.93;;
10088;SDS011;51898;49.864;8.550;2022-10-15T03:44:19;23.77;;;13.93;;
10088;SDS011;51898;49.864;8.550;2022-10-15T03:47:20;24.20;;;15.30;;
10088;SDS011;51898;49.864;8.550;2022-10-15T03:50:22;24.90;;;14.83;;
10088;SDS011;51898;49.864;8.550;2022-10-15T03:53:23;23.53;;;14.83;;
10088;SDS011;51898;49.864;8.550;2022-10-15T03:56:25;25.67;;;14.93;;
10088;SDS011;51898;49.864;8.550;2022-10-15T03:59:26;24.30;;;13.50;;
10088;SDS011;51898;49.864;8.550;2022-10-15T04:02:29;22.47;;;12.70;;
10088;SDS011;51898;49.864;8.550;2022-10-15T04:05:31;33.20;;;15.77;;
10088;SDS011;51898;49.864;8.550;2022-10-15T04:08:33;26.03;;;13.60;;
10088;SDS011;51898;49.864;8.550;2022-10-15T04:11:34;26.70;;;14.03;;
10088;SDS011;51898;49.864;8.550;2022-10-15T04:14:36;31.30;;;15.47;;
10088;SDS011;51898;49.864;8.550;2022-10-15T04:17:37;25.00;;;13.10;;
10088;SDS011;51898;49.864;8.550;2022-10-15T04:20:39;26.60;;;14.03;;
10088;SDS011;51898;49.864;8.550;2022-10-15T04:23:42;23.13;;;12.80;;
10088;SDS011;51898;49.864;8.550;2022-10-15T04:26:44;23.00;;;13.10;;
10088;SDS011;51898;49.864;8.550;2022-10-15T04:29:46;29.87;;;12.97;;
10088;SDS011;51898;49.864;8.550;2022-10-15T04:32:52;23.33;;;12.40;;
10088;SDS011;51898;49.864;8.550;2022-10-15T04:35:58;19.73;;;11.17;;
10088;SDS011;51898;49.864;8.550;2022-10-15T04:38:59;21.03;;;11.70;;
10088;SDS011;51898;49.864;8.550;2022-10-15T04:42:01;17.80;;;10.20;;
10088;SDS011;51898;49.864;8.550;2022-10-15T04:45:03;17.73;;;10.43;;
10088;SDS011;51898;49.864;8.550;2022-10-15T04:48:05;19.67;;;11.80;;
10088;SDS011;51898;49.864;8.550;2022-10-15T04:54:09;19.43;;;10.80;;
10088;SDS011;51898;49.864;8.550;2022-10-15T04:57:11;17.17;;;10.00;;
10088;SDS011;51898;49.864;8.550;2022-10-15T05:00:13;19.17;;;9.73;;
10088;SDS011;51898;49.864;8.550;2022-10-15T05:03:14;17.40;;;9.20;;
10088;SDS011;51898;49.864;8.550;2022-10-15T05:06:19;16.50;;;9.00;;
10088;SDS011;51898;49.864;8.550;2022-10-15T05:09:22;16.57;;;9.73;;
10088;SDS011;51898;49.864;8.550;2022-10-15T05:12:23;14.93;;;8.57;;
10088;SDS011;51898;49.864;8.550;2022-10-15T05:15:25;15.50;;;9.37;;
10088;SDS011;51898;49.864;8.550;2022-10-15T05:18:27;13.87;;;8.47;;
10088;SDS011;51898;49.864;8.550;2022-10-15T05:21:29;17.50;;;9.43;;
10088;SDS011;51898;49.864;8.550;2022-10-15T05:24:31;19.60;;;9.20;;
10088;SDS011;51898;49.864;8.550;2022-10-15T05:27:32;15.70;;;8.93;;
10088;SDS011;51898;49.864;8.550;2022-10-15T05:30:34;22.00;;;14.30;;
10088;SDS011;51898;49.864;8.550;2022-10-15T05:33:36;24.17;;;14.70;;
10088;SDS011;51898;49.864;8.550;2022-10-15T05:36:38;14.67;;;10.60;;
10088;SDS011;51898;49.864;8.550;2022-10-15T05:39:39;16.37;;;9.20;;
10088;SDS011;51898;49.864;8.550;2022-10-15T05:42:41;14.57;;;8.87;;
10088;SDS011;51898;49.864;8.550;2022-10-15T05:45:42;15.63;;;9.60;;
10088;SDS011;51898;49.864;8.550;2022-10-15T05:48:50;21.20;;;13.33;;
10088;SDS011;51898;49.864;8.550;2022-10-15T05:51:53;19.43;;;12.00;;
10088;SDS011;51898;49.864;8.550;2022-10-15T05:55:00;16.97;;;10.67;;
10088;SDS011;51898;49.864;8.550;2022-10-15T05:58:02;15.60;;;9.33;;
10088;SDS011;51898;49.864;8.550;2022-10-15T06:01:06;19.03;;;9.73;;
10088;SDS011;51898;49.864;8.550;2022-10-15T06:04:10;12.27;;;8.57;;
10088;SDS011;51898;49.864;8.550;2022-10-15T06:07:12;15.07;;;7.63;;
10088;SDS011;51898;49.864;8.550;2022-10-15T06:10:14;15.63;;;8.47;;
10088;SDS011;51898;49.864;8.550;2022-10-15T06:13:15;12.33;;;7.80;;
10088;SDS011;51898;49.864;8.550;2022-10-15T06:16:17;12.40;;;7.60;;
10088;SDS011;51898;49.864;8.550;2022-10-15T06:19:24;16.60;;;8.87;;
10088;SDS011;51898;49.864;8.550;2022-10-15T06:22:25;15.03;;;8.53;;
10088;SDS011;51898;49.864;8.550;2022-10-15T06:25:30;12.37;;;8.90;;
10088;SDS011;51898;49.864;8.550;2022-10-15T06:28:33;12.23;;;8.53;;
10088;SDS011;51898;49.864;8.550;2022-10-15T06:31:36;12.53;;;7.73;;
10088;SDS011;51898;49.864;8.550;2022-10-15T06:34:37;13.93;;;8.10;;
10088;SDS011;51898;49.864;8.550;2022-10-15T06:37:39;12.73;;;7.60;;
10088;SDS011;51898;49.864;8.550;2022-10-15T06:40:41;12.70;;;8.90;;
10088;SDS011;51898;49.864;8.550;2022-10-15T06:43:42;16.03;;;9.00;;
10088;SDS011;51898;49.864;8.550;2022-10-15T06:46:46;17.70;;;9.37;;
10088;SDS011;51898;49.864;8.550;2022-10-15T06:49:47;12.63;;;8.87;;
10088;SDS011;51898;49.864;8.550;2022-10-15T06:52:49;16.40;;;8.57;;
10088;SDS011;51898;49.864;8.550;2022-10-15T06:55:50;12.93;;;9.30;;
10088;SDS011;51898;49.864;8.550;2022-10-15T06:58:55;13.67;;;9.43;;
10088;SDS011;51898;49.864;8.550;2022-10-15T07:01:57;15.90;;;10.50;;
10088;SDS011;51898;49.864;8.550;2022-10-15T07:04:59;19.07;;;12.23;;
10088;SDS011;51898;49.864;8.550;2022-10-15T07:08:00;13.07;;;9.67;;
10088;SDS011;51898;49.864;8.550;2022-10-15T07:11:02;16.93;;;11.50;;
10088;SDS011;51898;49.864;8.550;2022-10-15T07:14:05;12.93;;;9.63;;
10088;SDS011;51898;49.864;8.550;2022-10-15T07:17:07;10.80;;;8.30;;
10088;SDS011;51898;49.864;8.550;2022-10-15T07:20:09;12.10;;;8.00;;
10088;SDS011;51898;49.864;8.550;2022-10-15T07:23:11;13.10;;;7.83;;
10088;SDS011;51898;49.864;8.550;2022-10-15T07:26:12;11.60;;;7.17;;
10088;SDS011;51898;49.864;8.550;2022-10-15T07:29:14;9.97;;;6.93;;
10088;SDS011;51898;49.864;8.550;2022-10-15T07:32:15;16.93;;;8.23;;
10088;SDS011;51898;49.864;8.550;2022-10-15T07:35:17;9.03;;;6.33;;
10088;SDS011;51898;49.864;8.550;2022-10-15T07:38:19;9.60;;;7.80;;
10088;SDS011;51898;49.864;8.550;2022-10-15T07:41:21;8.17;;;6.03;;
10088;SDS011;51898;49.864;8.550;2022-10-15T07:44:23;9.90;;;6.30;;
10088;SDS011;51898;49.864;8.550;2022-10-15T07:47:25;5.97;;;5.33;;
10088;SDS011;51898;49.864;8.550;2022-10-15T07:50:27;10.73;;;4.90;;
10088;SDS011;51898;49.864;8.550;2022-10-15T07:53:35;10.27;;;5.40;;
10088;SDS011;51898;49.864;8.550;2022-10-15T07:56:37;5.87;;;5.13;;
10088;SDS011;51898;49.864;8.550;2022-10-15T07:59:38;5.20;;;4.47;;
10088;SDS011;51898;49.864;8.550;2022-10-15T08:02:40;5.87;;;4.90;;
10088;SDS011;51898;49.864;8.550;2022-10-15T08:05:42;12.10;;;5.10;;
10088;SDS011;51898;49.864;8.550;2022-10-15T08:08:43;5.50;;;4.20;;
10088;SDS011;51898;49.864;8.550;2022-10-15T08:11:45;4.47;;;3.63;;
10088;SDS011;51898;49.864;8.550;2022-10-15T08:14:47;5.87;;;4.33;;
10088;SDS011;51898;49.864;8.550;2022-10-15T08:17:48;7.80;;;4.70;;
10088;SDS011;51898;49.864;8.550;2022-10-15T08:20:50;4.50;;;3.60;;
10088;SDS011;51898;49.864;8.550;2022-10-15T08:23:52;4.37;;;3.10;;
10088;SDS011;51898;49.864;8.550;2022-10-15T08:26:53;4.73;;;3.40;;
10088;SDS011;51898;49.864;8.550;2022-10-15T08:29:55;5.10;;;3.20;;
10088;SDS011;51898;49.864;8.550;2022-10-15T08:32:56;4.97;;;4.50;;
10088;SDS011;51898;49.864;8.550;2022-10-15T08:35:58;7.57;;;5.30;;
10088;SDS011;51898;49.864;8.550;2022-10-15T08:39:00;4.90;;;4.40;;
10088;SDS011;51898;49.864;8.550;2022-10-15T08:42:03;5.90;;;3.10;;
10088;SDS011;51898;49.864;8.550;2022-10-15T08:45:11;3.23;;;2.90;;
10088;SDS011;51898;49.864;8.550;2022-10-15T08:48:18;4.63;;;3.27;;
10088;SDS011;51898;49.864;8.550;2022-10-15T08:51:29;4.00;;;3.43;;
10088;SDS011;51898;49.864;8.550;2022-10-15T08:54:42;4.10;;;3.70;;
10088;SDS011;51898;49.864;8.550;2022-10-15T08:57:48;3.30;;;3.00;;
10088;SDS011;51898;49.864;8.550;2022-10-15T09:01:05;3.57;;;3.27;;
10088;SDS011;51898;49.864;8.550;2022-10-15T09:04:28;3.10;;;2.80;;
10088;SDS011;51898;49.864;8.550;2022-10-15T09:10:54;2.80;;;2.33;;
10088;SDS011;51898;49.864;8.550;2022-10-15T09:14:04;2.70;;;2.50;;
10088;SDS011;51898;49.864;8.550;2022-10-15T09:17:23;3.13;;;2.50;;
10088;SDS011;51898;49.864;8.550;2022-10-15T09:20:29;2.67;;;2.47;;
10088;SDS011;51898;49.864;8.550;2022-10-15T09:23:34;3.00;;;2.77;;
10088;SDS011;51898;49.864;8.550;2022-10-15T09:26:48;2.47;;;2.27;;
10088;SDS011;51898;49.864;8.550;2022-10-15T09:33:51;2.40;;;2.30;;
10088;SDS011;51898;49.864;8.550;2022-10-15T09:36:58;2.77;;;2.57;;
10088;SDS011;51898;49.864;8.550;2022-10-15T09:43:30;2.27;;;1.97;;
10088;SDS011;51898;49.864;8.550;2022-10-15T09:46:41;3.00;;;2.37;;
10088;SDS011;51898;49.864;8.550;2022-10-15T09:49:47;2.83;;;2.33;;
10088;SDS011;51898;49.864;8.550;2022-10-15T09:57:01;4.43;;;2.43;;
10088;SDS011;51898;49.864;8.550;2022-10-15T09:59:57;3.23;;;2.00;;
10088;SDS011;51898;49.864;8.550;2022-10-15T10:03:05;1.80;;;1.70;;
10088;SDS011;51898;49.864;8.550;2022-10-15T10:06:14;1.77;;;1.33;;
10088;SDS011;51898;49.864;8.550;2022-10-15T10:09:19;2.43;;;1.50;;
10088;SDS011;51898;49.864;8.550;2022-10-15T10:12:33;2.60;;;2.20;;
10088;SDS011;51898;49.864;8.550;2022-10-15T10:15:40;2.40;;;2.20;;
10088;SDS011;51898;49.864;8.550;2022-10-15T10:18:45;3.73;;;2.27;;
10088;SDS011;51898;49.864;8.550;2022-10-15T10:22:21;5.10;;;3.20;;
10088;SDS011;51898;49.864;8.550;2022-10-15T10:28:52;3.63;;;3.33;;
10088;SDS011;51898;49.864;8.550;2022-10-15T10:32:17;3.43;;;3.13;;
10088;SDS011;51898;49.864;8.550;2022-10-15T10:35:22;5.77;;;4.27;;
10088;SDS011;51898;49.864;8.550;2022-10-15T10:38:29;4.70;;;4.30;;
10088;SDS011;51898;49.864;8.550;2022-10-15T10:41:56;5.30;;;4.70;;
10088;SDS011;51898;49.864;8.550;2022-10-15T10:48:25;7.83;;;7.07;;
10088;SDS011;51898;49.864;8.550;2022-10-15T10:51:47;6.70;;;6.20;;
10088;SDS011;51898;49.864;8.550;2022-10-15T10:54:52;5.93;;;5.30;;
10088;SDS011;51898;49.864;8.550;2022-10-15T10:58:19;5.70;;;4.60;;
10088;SDS011;51898;49.864;8.550;2022-10-15T11:01:28;4.17;;;3.80;;
10088;SDS011;51898;49.864;8.550;2022-10-15T11:04:30;4.57;;;4.10;;
10088;SDS011;51898;49.864;8.550;2022-10-15T11:07:56;4.00;;;3.60;;
10088;SDS011;51898;49.864;8.550;2022-10-15T11:11:03;4.03;;;3.63;;
10088;SDS011;51898;49.864;8.550;2022-10-15T11:14:18;3.97;;;3.23;;
10088;SDS011;51898;49.864;8.550;2022-10-15T11:21:09;3.57;;;3.27;;
10088;SDS011;51898;49.864;8.550;2022-10-15T11:28:00;9.03;;;4.90;;
10088;SDS011;51898;49.864;8.550;2022-10-15T11:31:31;5.80;;;5.20;;
10088;SDS011;51898;49.864;8.550;2022-10-15T11:35:11;6.80;;;5.03;;
10088;SDS011;51898;49.864;8.550;2022-10-15T11:38:38;5.30;;;4.80;;
10088;SDS011;51898;49.864;8.550;2022-10-15T11:55:44;3.60;;;2.60;;
10088;SDS011;51898;49.864;8.550;2022-10-15T11:58:55;3.53;;;2.40;;
10088;SDS011;51898;49.864;8.550;2022-10-15T12:02:14;5.20;;;2.37;;
10088;SDS011;51898;49.864;8.550;2022-10-15T12:05:24;2.90;;;2.60;;
10088;SDS011;51898;49.864;8.550;2022-10-15T12:08:43;4.73;;;2.80;;
10088;SDS011;51898;49.864;8.550;2022-10-15T12:15:03;4.53;;;2.37;;
10088;SDS011;51898;49.864;8.550;2022-10-15T12:22:29;1.83;;;1.63;;
10088;SDS011;51898;49.864;8.550;2022-10-15T12:24:56;3.60;;;2.47;;
10088;SDS011;51898;49.864;8.550;2022-10-15T12:28:02;2.00;;;1.80;;
10088;SDS011;51898;49.864;8.550;2022-10-15T12:31:05;1.80;;;1.60;;
10088;SDS011;51898;49.864;8.550;2022-10-15T12:34:19;3.03;;;1.60;;
10088;SDS011;51898;49.864;8.550;2022-10-15T12:37:28;3.17;;;2.80;;
10088;SDS011;51898;49.864;8.550;2022-10-15T12:40:34;1.80;;;1.70;;
10088;SDS011;51898;49.864;8.550;2022-10-15T12:43:43;4.40;;;2.60;;
10088;SDS011;51898;49.864;8.550;2022-10-15T12:47:03;2.87;;;1.93;;
10088;SDS011;51898;49.864;8.550;2022-10-15T12:50:15;3.63;;;2.10;;
10088;SDS011;51898;49.864;8.550;2022-10-15T12:56:36;2.73;;;1.43;;
10088;SDS011;51898;49.864;8.550;2022-10-15T13:02:45;4.70;;;1.80;;
10088;SDS011;51898;49.864;8.550;2022-10-15T13:05:48;3.13;;;1.40;;
10088;SDS011;51898;49.864;8.550;2022-10-15T13:12:20;2.43;;;1.70;;
10088;SDS011;51898;49.864;8.550;2022-10-15T13:15:26;1.67;;;1.50;;
10088;SDS011;51898;49.864;8.550;2022-10-15T13:18:30;1.70;;;1.27;;
10088;SDS011;51898;49.864;8.550;2022-10-15T13:21:49;1.30;;;1.20;;
10088;SDS011;51898;49.864;8.550;2022-10-15T13:24:57;4.00;;;1.50;;
10088;SDS011;51898;49.864;8.550;2022-10-15T13:28:00;2.33;;;1.30;;
10088;SDS011;51898;49.864;8.550;2022-10-15T13:31:03;2.80;;;1.63;;
10088;SDS011;51898;49.864;8.550;2022-10-15T13:37:34;1.70;;;1.20;;
10088;SDS011;51898;49.864;8.550;2022-10-15T13:40:38;1.10;;;1.00;;
10088;SDS011;51898;49.864;8.550;2022-10-15T13:43:49;1.10;;;1.00;;
10088;SDS011;51898;49.864;8.550;2022-10-15T13:46:52;2.07;;;1.00;;
10088;SDS011;51898;49.864;8.550;2022-10-15T13:53:21;12.53;;;10.43;;
10088;SDS011;51898;49.864;8.550;2022-10-15T13:56:31;1.27;;;1.13;;
10088;SDS011;51898;49.864;8.550;2022-10-15T13:59:33;1.10;;;1.10;;
10088;SDS011;51898;49.864;8.550;2022-10-15T14:02:35;0.80;;;0.70;;
10088;SDS011;51898;49.864;8.550;2022-10-15T14:05:36;2.87;;;1.20;;
10088;SDS011;51898;49.864;8.550;2022-10-15T14:08:38;1.00;;;0.90;;
10088;SDS011;51898;49.864;8.550;2022-10-15T14:11:40;1.83;;;1.00;;
10088;SDS011;51898;49.864;8.550;2022-10-15T14:14:43;5.70;;;1.80;;
10088;SDS011;51898;49.864;8.550;2022-10-15T14:17:49;1.40;;;0.87;;
10088;SDS011;51898;49.864;8.550;2022-10-15T14:20:51;1.90;;;1.30;;
10088;SDS011;51898;49.864;8.550;2022-10-15T14:24:11;1.57;;;1.40;;
10088;SDS011;51898;49.864;8.550;2022-10-15T14:27:17;4.43;;;1.60;;
10088;SDS011;51898;49.864;8.550;2022-10-15T14:30:27;1.30;;;1.13;;
10088;SDS011;51898;49.864;8.550;2022-10-15T14:36:41;1.57;;;1.47;;
10088;SDS011;51898;49.864;8.550;2022-10-15T14:39:43;1.27;;;1.17;;
10088;SDS011;51898;49.864;8.550;2022-10-15T14:43:00;1.93;;;0.90;;
10088;SDS011;51898;49.864;8.550;2022-10-15T14:46:06;3.77;;;1.00;;
10088;SDS011;51898;49.864;8.550;2022-10-15T14:52:28;1.53;;;1.10;;
10088;SDS011;51898;49.864;8.550;2022-10-15T14:55:37;1.10;;;1.00;;
10088;SDS011;51898;49.864;8.550;2022-10-15T14:58:53;1.00;;;0.90;;
10088;SDS011;51898;49.864;8.550;2022-10-15T15:01:58;1.23;;;0.93;;
10088;SDS011;51898;49.864;8.550;2022-10-15T15:05:05;0.77;;;0.77;;
10088;SDS011;51898;49.864;8.550;2022-10-15T15:08:08;0.93;;;0.83;;
10088;SDS011;51898;49.864;8.550;2022-10-15T15:11:11;1.00;;;0.90;;
10088;SDS011;51898;49.864;8.550;2022-10-15T15:14:17;1.67;;;1.40;;
10088;SDS011;51898;49.864;8.550;2022-10-15T15:17:26;1.10;;;1.00;;
10088;SDS011;51898;49.864;8.550;2022-10-15T15:20:29;1.13;;;1.03;;
10088;SDS011;51898;49.864;8.550;2022-10-15T15:23:31;2.13;;;1.20;;
10088;SDS011;51898;49.864;8.550;2022-10-15T15:26:33;1.63;;;1.20;;
10088;SDS011;51898;49.864;8.550;2022-10-15T15:29:35;1.23;;;1.13;;
10088;SDS011;51898;49.864;8.550;2022-10-15T15:32:38;1.53;;;1.20;;
10088;SDS011;51898;49.864;8.550;2022-10-15T15:35:41;1.43;;;1.30;;
10088;SDS011;51898;49.864;8.550;2022-10-15T15:38:51;3.10;;;1.40;;
10088;SDS011;51898;49.864;8.550;2022-10-15T15:41:53;3.17;;;1.37;;
10088;SDS011;51898;49.864;8.550;2022-10-15T15:44:55;4.97;;;1.30;;
10088;SDS011;51898;49.864;8.550;2022-10-15T15:47:56;1.93;;;1.10;;
10088;SDS011;51898;49.864;8.550;2022-10-15T15:51:03;1.03;;;0.93;;
10088;SDS011;51898;49.864;8.550;2022-10-15T15:54:06;2.30;;;1.20;;
10088;SDS011;51898;49.864;8.550;2022-10-15T15:57:11;1.93;;;1.70;;
10088;SDS011;51898;49.864;8.550;2022-10-15T16:00:13;1.40;;;1.30;;
10088;SDS011;51898;49.864;8.550;2022-10-15T16:03:15;1.63;;;1.43;;
10088;SDS011;51898;49.864;8.550;2022-10-15T16:06:16;1.50;;;1.33;;
10088;SDS011;51898;49.864;8.550;2022-10-15T16:09:18;2.17;;;1.90;;
10088;SDS011;51898;49.864;8.550;2022-10-15T16:12:22;4.10;;;1.50;;
10088;SDS011;51898;49.864;8.550;2022-10-15T16:15:24;3.13;;;2.13;;
10088;SDS011;51898;49.864;8.550;2022-10-15T16:18:26;3.80;;;2.20;;
10088;SDS011;51898;49.864;8.550;2022-10-15T16:21:28;2.10;;;1.63;;
10088;SDS011;51898;49.864;8.550;2022-10-15T16:24:29;2.50;;;1.70;;
10088;SDS011;51898;49.864;8.550;2022-10-15T16:27:31;2.40;;;1.53;;
10088;SDS011;51898;49.864;8.550;2022-10-15T16:30:34;7.40;;;2.00;;
10088;SDS011;51898;49.864;8.550;2022-10-15T16:33:36;2.50;;;1.70;;
10088;SDS011;51898;49.864;8.550;2022-10-15T16:36:38;4.20;;;2.47;;
10088;SDS011;51898;49.864;8.550;2022-10-15T16:39:40;2.60;;;1.67;;
10088;SDS011;51898;49.864;8.550;2022-10-15T16:42:42;3.13;;;2.20;;
10088;SDS011;51898;49.864;8.550;2022-10-15T16:45:44;4.00;;;1.97;;
10088;SDS011;51898;49.864;8.550;2022-10-15T16:48:55;2.23;;;2.07;;
10088;SDS011;51898;49.864;8.550;2022-10-15T16:51:57;3.97;;;2.10;;
10088;SDS011;51898;49.864;8.550;2022-10-15T16:54:59;3.57;;;2.23;;
10088;SDS011;51898;49.864;8.550;2022-10-15T16:58:01;4.63;;;1.73;;
10088;SDS011;51898;49.864;8.550;2022-10-15T17:01:04;3.23;;;2.00;;
10088;SDS011;51898;49.864;8.550;2022-10-15T17:04:07;4.83;;;1.83;;
10088;SDS011;51898;49.864;8.550;2022-10-15T17:07:08;2.53;;;2.00;;
10088;SDS011;51898;49.864;8.550;2022-10-15T17:10:10;4.50;;;2.30;;
10088;SDS011;51898;49.864;8.550;2022-10-15T17:13:15;5.83;;;2.33;;
10088;SDS011;51898;49.864;8.550;2022-10-15T17:16:21;3.67;;;2.40;;
10088;SDS011;51898;49.864;8.550;2022-10-15T17:19:24;5.73;;;2.73;;
10088;SDS011;51898;49.864;8.550;2022-10-15T17:22:31;2.83;;;2.30;;
10088;SDS011;51898;49.864;8.550;2022-10-15T17:25:35;1.77;;;1.60;;
10088;SDS011;51898;49.864;8.550;2022-10-15T17:28:36;4.70;;;2.07;;
10088;SDS011;51898;49.864;8.550;2022-10-15T17:31:38;2.57;;;2.00;;
10088;SDS011;51898;49.864;8.550;2022-10-15T17:34:41;2.57;;;2.30;;
10088;SDS011;51898;49.864;8.550;2022-10-15T17:37:42;2.47;;;2.27;;
10088;SDS011;51898;49.864;8.550;2022-10-15T17:40:45;5.97;;;4.30;;
10088;SDS011;51898;49.864;8.550;2022-10-15T17:43:47;2.03;;;1.93;;
10088;SDS011;51898;49.864;8.550;2022-10-15T17:46:49;2.57;;;2.37;;
10088;SDS011;51898;49.864;8.550;2022-10-15T17:49:52;3.10;;;2.03;;
10088;SDS011;51898;49.864;8.550;2022-10-15T17:52:54;3.50;;;2.40;;
10088;SDS011;51898;49.864;8.550;2022-10-15T17:56:07;3.83;;;2.60;;
10088;SDS011;51898;49.864;8.550;2022-10-15T17:59:11;2.80;;;2.40;;
10088;SDS011;51898;49.864;8.550;2022-10-15T18:02:12;3.33;;;2.73;;
10088;SDS011;51898;49.864;8.550;2022-10-15T18:05:14;4.27;;;3.27;;
10088;SDS011;51898;49.864;8.550;2022-10-15T18:08:22;4.57;;;3.00;;
10088;SDS011;51898;49.864;8.550;2022-10-15T18:11:33;2.83;;;2.60;;
10088;SDS011;51898;49.864;8.550;2022-10-15T18:14:34;2.90;;;2.60;;
10088;SDS011;51898;49.864;8.550;2022-10-15T18:17:36;6.20;;;3.37;;
10088;SDS011;51898;49.864;8.550;2022-10-15T18:20:39;3.33;;;2.40;;
10088;SDS011;51898;49.864;8.550;2022-10-15T18:23:41;3.83;;;2.90;;
10088;SDS011;51898;49.864;8.550;2022-10-15T18:26:42;3.40;;;2.20;;
10088;SDS011;51898;49.864;8.550;2022-10-15T18:29:44;2.30;;;2.10;;
10088;SDS011;51898;49.864;8.550;2022-10-15T18:32:46;3.77;;;2.53;;
10088;SDS011;51898;49.864;8.550;2022-10-15T18:35:47;8.37;;;2.70;;
10088;SDS011;51898;49.864;8.550;2022-10-15T18:38:52;3.37;;;2.60;;
10088;SDS011;51898;49.864;8.550;2022-10-15T18:41:54;2.80;;;2.57;;
10088;SDS011;51898;49.864;8.550;2022-10-15T18:44:57;6.20;;;2.33;;
10088;SDS011;51898;49.864;8.550;2022-10-15T18:47:58;4.73;;;2.17;;
10088;SDS011;51898;49.864;8.550;2022-10-15T18:51:03;2.90;;;2.60;;
10088;SDS011;51898;49.864;8.550;2022-10-15T18:54:06;7.40;;;2.40;;
10088;SDS011;51898;49.864;8.550;2022-10-15T18:57:11;6.13;;;2.83;;
10088;SDS011;51898;49.864;8.550;2022-10-15T19:00:13;4.27;;;2.43;;
10088;SDS011;51898;49.864;8.550;2022-10-15T19:03:15;5.47;;;3.27;;
10088;SDS011;51898;49.864;8.550;2022-10-15T19:06:21;3.87;;;2.60;;
10088;SDS011;51898;49.864;8.550;2022-10-15T19:09:24;3.77;;;2.83;;
10088;SDS011;51898;49.864;8.550;2022-10-15T19:12:26;5.17;;;3.07;;
10088;SDS011;51898;49.864;8.550;2022-10-15T19:15:28;4.07;;;3.13;;
10088;SDS011;51898;49.864;8.550;2022-10-15T19:18:30;3.10;;;2.70;;
10088;SDS011;51898;49.864;8.550;2022-10-15T19:21:33;4.13;;;3.40;;
10088;SDS011;51898;49.864;8.550;2022-10-15T19:24:35;5.10;;;3.13;;
10088;SDS011;51898;49.864;8.550;2022-10-15T19:27:37;4.40;;;3.30;;
10088;SDS011;51898;49.864;8.550;2022-10-15T19:30:38;4.23;;;3.40;;
10088;SDS011;51898;49.864;8.550;2022-10-15T19:33:40;4.23;;;2.77;;
10088;SDS011;51898;49.864;8.550;2022-10-15T19:36:45;3.90;;;2.93;;
10088;SDS011;51898;49.864;8.550;2022-10-15T19:39:48;3.30;;;3.00;;
10088;SDS011;51898;49.864;8.550;2022-10-15T19:42:49;4.17;;;3.13;;
10088;SDS011;51898;49.864;8.550;2022-10-15T19:45:51;3.70;;;3.20;;
10088;SDS011;51898;49.864;8.550;2022-10-15T19:48:53;3.50;;;3.20;;
10088;SDS011;51898;49.864;8.550;2022-10-15T19:51:55;4.70;;;3.40;;
10088;SDS011;51898;49.864;8.550;2022-10-15T19:54:56;6.87;;;4.50;;
10088;SDS011;51898;49.864;8.550;2022-10-15T19:57:58;5.03;;;3.57;;
10088;SDS011;51898;49.864;8.550;2022-10-15T20:01:00;3.73;;;3.43;;